Time;durP1;ratioP1;P1;durP2;ratioP2;P2;SDS_P1;SDS_P2;PMS_P1;PMS_P2;Temp;Humidity;BMP_temperature;BMP_pressure;BME280_temperature;BME280_humidity;BME280_pressure;Samples;Min_cycle;Max_cycle;Signal;HPM_P1;HPM_P2
2023/06/15 00:00:25;;;;;;;6.07;3.28;;;22.00;91.40;;;;;;7401516;19;19914;-72
2023/06/15 00:02:51;;;;;;;5.65;2.35;;;22.00;91.30;;;;;;7404076;19;20324;-72
2023/06/15 00:05:17;;;;;;;6.05;2.60;;;22.00;90.90;;;;;;7398859;19;19928;-72
2023/06/15 00:07:43;;;;;;;4.68;2.63;;;22.00;90.90;;;;;;7401942;19;19947;-72
2023/06/15 00:10:10;;;;;;;5.85;2.53;;;21.90;91.10;;;;;;7400328;19;19971;-72
2023/06/15 00:12:35;;;;;;;;;;;21.80;91.40;;;;;;7407330;19;19926;-73
2023/06/15 00:15:02;;;;;;;6.25;3.67;;;21.80;91.20;;;;;;7403344;19;20358;-73
2023/06/15 00:17:29;;;;;;;;;;;21.80;91.20;;;;;;7405746;19;19916;-72
2023/06/15 00:20:00;;;;;;;6.43;2.80;;;21.80;91.10;;;;;;7407303;19;19918;-73
2023/06/15 00:22:28;;;;;;;6.90;2.72;;;21.80;91.00;;;;;;7402787;19;20539;-72
2023/06/15 00:24:54;;;;;;;5.63;2.45;;;21.70;91.10;;;;;;7405794;19;19943;-72
2023/06/15 00:27:20;;;;;;;6.57;2.90;;;21.80;91.10;;;;;;7404713;19;19982;-72
2023/06/15 00:29:46;;;;;;;6.13;2.78;;;21.80;91.00;;;;;;7384238;19;19918;-73
2023/06/15 00:32:12;;;;;;;7.00;3.03;;;21.80;90.90;;;;;;7405135;19;19943;-73
2023/06/15 00:34:38;;;;;;;6.97;2.88;;;21.80;91.00;;;;;;7407294;19;19911;-72
2023/06/15 00:37:04;;;;;;;5.57;2.97;;;21.80;91.10;;;;;;7401247;19;19926;-72
2023/06/15 00:39:29;;;;;;;4.97;2.60;;;21.80;91.00;;;;;;7406890;19;19918;-73
2023/06/15 00:41:55;;;;;;;6.57;2.50;;;21.80;90.60;;;;;;7407216;19;19918;-73
2023/06/15 00:44:21;;;;;;;4.45;2.70;;;21.80;90.50;;;;;;7400559;19;20417;-72
2023/06/15 00:46:48;;;;;;;;;;;21.80;90.40;;;;;;7402620;19;19936;-73
2023/06/15 00:49:14;;;;;;;6.00;2.90;;;21.90;90.30;;;;;;7398797;19;19907;-72
2023/06/15 00:51:41;;;;;;;7.57;3.08;;;21.90;90.20;;;;;;7402258;19;20319;-72
2023/06/15 00:54:08;;;;;;;6.50;3.10;;;21.90;90.10;;;;;;7402107;19;20719;-72
2023/06/15 00:56:35;;;;;;;7.88;2.75;;;21.90;90.00;;;;;;7403649;19;19914;-73
2023/06/15 00:59:01;;;;;;;5.30;2.70;;;21.80;90.00;;;;;;7404167;19;20331;-73
2023/06/15 01:01:27;;;;;;;5.93;2.40;;;21.80;89.80;;;;;;7405726;19;20223;-73
2023/06/15 01:03:54;;;;;;;8.23;2.40;;;21.80;89.30;;;;;;7405224;19;20285;-73
2023/06/15 01:06:24;;;;;;;6.68;2.67;;;21.80;89.00;;;;;;7395256;19;19923;-73
2023/06/15 01:08:52;;;;;;;6.50;3.00;;;21.80;88.70;;;;;;7404354;19;20368;-72
2023/06/15 01:11:19;;;;;;;4.57;2.60;;;21.80;88.90;;;;;;7399528;19;19919;-74
2023/06/15 01:13:47;;;;;;;7.72;3.00;;;21.80;88.90;;;;;;7404349;19;19962;-73
2023/06/15 01:16:33;;;;;;;5.07;2.78;;;21.80;88.70;;;;;;7403194;19;19914;-73
2023/06/15 01:19:01;;;;;;;5.22;2.70;;;21.80;88.50;;;;;;7401132;19;19922;-72
2023/06/15 01:21:29;;;;;;;5.47;2.95;;;21.80;88.20;;;;;;7401844;19;19932;-72
2023/06/15 01:24:05;;;;;;;5.75;2.50;;;21.80;88.40;;;;;;7405877;19;20318;-73
2023/06/15 01:26:33;;;;;;;7.28;2.70;;;21.80;88.70;;;;;;7398525;19;19921;-73
2023/06/15 01:28:59;;;;;;;6.75;3.40;;;21.80;89.10;;;;;;7405298;19;20281;-72
2023/06/15 01:31:27;;;;;;;7.07;2.80;;;21.80;88.70;;;;;;7402136;19;19918;-72
2023/06/15 01:33:53;;;;;;;5.53;2.75;;;21.70;88.80;;;;;;7400729;19;19990;-73
2023/06/15 01:36:20;;;;;;;5.45;2.95;;;21.70;88.90;;;;;;7401139;19;20607;-72
2023/06/15 01:38:53;;;;;;;6.85;3.28;;;21.70;89.30;;;;;;7404493;19;19922;-72
2023/06/15 01:41:22;;;;;;;6.00;2.85;;;21.70;90.40;;;;;;7401364;19;19917;-73
2023/06/15 01:43:48;;;;;;;6.93;3.00;;;21.70;91.30;;;;;;7405598;19;19943;-72
2023/06/15 01:46:14;;;;;;;6.35;3.13;;;21.80;91.20;;;;;;7403109;19;19919;-72
2023/06/15 01:48:40;;;;;;;6.32;2.88;;;21.80;90.70;;;;;;7402489;19;19953;-72
2023/06/15 01:51:06;;;;;;;7.32;2.90;;;21.80;90.40;;;;;;7401498;19;19918;-71
2023/06/15 01:53:32;;;;;;;5.78;3.10;;;21.80;91.20;;;;;;7401550;19;20288;-72
2023/06/15 01:56:01;;;;;;;5.82;2.83;;;21.70;91.20;;;;;;7399149;19;20282;-73
2023/06/15 01:58:27;;;;;;;7.47;2.95;;;21.80;92.20;;;;;;7399756;19;19923;-73
2023/06/15 02:00:53;;;;;;;5.80;3.10;;;21.80;93.10;;;;;;7402084;19;19947;-72
2023/06/15 02:03:20;;;;;;;5.38;3.20;;;21.80;92.90;;;;;;7399837;19;19918;-72
2023/06/15 02:05:46;;;;;;;6.75;3.00;;;21.80;92.40;;;;;;7403916;19;19918;-73
2023/06/15 02:08:12;;;;;;;6.20;3.10;;;21.80;91.90;;;;;;7400212;19;19915;-72
2023/06/15 02:10:39;;;;;;;6.28;3.60;;;21.70;91.60;;;;;;7404858;19;19919;-72
2023/06/15 02:13:10;;;;;;;6.75;3.15;;;21.70;92.30;;;;;;7401613;19;19927;-73
2023/06/15 02:15:36;;;;;;;6.15;3.45;;;21.70;92.40;;;;;;7403627;19;19926;-72
2023/06/15 02:18:07;;;;;;;6.55;3.25;;;21.70;92.60;;;;;;7399157;19;20588;-71
2023/06/15 02:20:33;;;;;;;8.45;3.50;;;21.70;92.90;;;;;;7397331;19;19935;-72
2023/06/15 02:22:59;;;;;;;;;;;21.70;92.50;;;;;;7405240;19;20381;-72
2023/06/15 02:25:27;;;;;;;6.60;3.47;;;21.70;92.50;;;;;;7402705;19;19915;-72
2023/06/15 02:27:53;;;;;;;6.65;3.28;;;21.70;92.50;;;;;;7400426;19;19918;-72
2023/06/15 02:30:20;;;;;;;7.40;3.15;;;21.70;92.50;;;;;;7400503;19;19946;-72
2023/06/15 02:32:48;;;;;;;5.75;3.13;;;21.70;92.60;;;;;;7401301;19;19978;-72
2023/06/15 02:35:14;;;;;;;6.75;3.13;;;21.70;92.50;;;;;;7402542;19;19919;-72
2023/06/15 02:37:41;;;;;;;6.93;3.10;;;21.70;92.50;;;;;;7401800;19;19958;-73
2023/06/15 02:40:08;;;;;;;;;;;21.70;92.40;;;;;;7402025;19;19939;-72
2023/06/15 02:42:35;;;;;;;6.95;3.40;;;21.70;92.30;;;;;;7345186;19;19944;-72
2023/06/15 02:45:02;;;;;;;7.70;3.03;;;21.70;92.40;;;;;;7401915;19;19919;-72
2023/06/15 02:47:31;;;;;;;7.50;3.28;;;21.70;92.40;;;;;;7401562;19;20351;-72
2023/06/15 02:49:59;;;;;;;9.00;3.55;;;21.60;92.30;;;;;;7400605;19;20358;-72
2023/06/15 02:52:30;;;;;;;5.43;3.33;;;21.70;92.30;;;;;;7397775;19;19907;-73
2023/06/15 02:54:56;;;;;;;8.93;3.35;;;21.70;92.20;;;;;;7401537;19;20346;-73
2023/06/15 02:57:23;;;;;;;;;;;21.70;92.30;;;;;;7402153;19;20646;-72
2023/06/15 02:59:49;;;;;;;5.35;2.85;;;21.60;92.40;;;;;;7400542;19;19926;-73
2023/06/15 03:02:15;;;;;;;4.88;3.03;;;21.60;92.40;;;;;;7397137;19;19943;-72
2023/06/15 03:04:44;;;;;;;5.75;3.25;;;21.60;92.60;;;;;;7402591;19;19939;-72
2023/06/15 03:07:20;;;;;;;6.03;3.20;;;21.60;92.70;;;;;;7401142;19;19931;-72
2023/06/15 03:09:51;;;;;;;7.25;3.42;;;21.60;92.70;;;;;;7399763;19;19946;-72
2023/06/15 03:12:18;;;;;;;7.35;3.60;;;21.60;93.30;;;;;;7399619;19;19931;-72
2023/06/15 03:14:50;;;;;;;7.10;3.20;;;21.60;93.30;;;;;;7401151;19;19918;-72
2023/06/15 03:17:16;;;;;;;6.72;3.22;;;21.50;93.40;;;;;;7398790;19;20343;-72
2023/06/15 03:19:46;;;;;;;7.28;3.90;;;21.50;93.50;;;;;;7401908;19;20265;-72
2023/06/15 03:22:13;;;;;;;6.85;3.50;;;21.50;93.60;;;;;;7392976;19;19941;-73
2023/06/15 03:24:39;;;;;;;8.13;3.53;;;21.50;93.70;;;;;;7398882;19;19924;-72
2023/06/15 03:27:06;;;;;;;6.97;3.55;;;21.50;93.70;;;;;;7398070;19;19926;-72
2023/06/15 03:29:36;;;;;;;5.72;3.05;;;21.40;93.80;;;;;;7399866;19;20259;-73
2023/06/15 03:32:06;;;;;;;6.35;3.38;;;21.50;93.90;;;;;;7397529;19;19918;-73
2023/06/15 03:34:32;;;;;;;5.88;3.42;;;21.50;93.90;;;;;;7401794;19;19970;-72
2023/06/15 03:36:58;;;;;;;8.25;3.70;;;21.40;93.90;;;;;;7400057;19;19922;-72
2023/06/15 03:39:24;;;;;;;7.05;3.60;;;21.40;94.00;;;;;;7395664;19;19914;-73
2023/06/15 03:41:50;;;;;;;8.20;3.28;;;21.40;94.10;;;;;;7398498;19;19926;-72
2023/06/15 03:44:16;;;;;;;7.82;3.67;;;21.40;94.00;;;;;;7397990;19;19929;-73
2023/06/15 03:46:42;;;;;;;7.35;3.38;;;21.40;94.20;;;;;;7379391;19;19914;-73
2023/06/15 03:49:08;;;;;;;5.82;3.55;;;21.40;94.10;;;;;;7368335;19;19911;-72
2023/06/15 03:51:34;;;;;;;7.05;3.15;;;21.40;94.10;;;;;;7401194;19;19987;-72
2023/06/15 03:53:59;;;;;;;6.90;3.25;;;21.40;94.10;;;;;;7400396;19;19922;-74
2023/06/15 03:56:25;;;;;;;8.95;3.80;;;21.40;94.20;;;;;;7398287;19;19918;-73
2023/06/15 03:58:51;;;;;;;8.77;3.63;;;21.40;94.30;;;;;;7401140;19;19918;-73
2023/06/15 04:01:19;;;;;;;6.35;3.30;;;21.40;94.20;;;;;;7398799;19;19911;-73
2023/06/15 04:03:45;;;;;;;8.32;4.07;;;21.40;94.40;;;;;;7395675;19;19911;-73
2023/06/15 04:06:11;;;;;;;6.70;3.85;;;21.40;94.00;;;;;;7394267;19;19921;-73
2023/06/15 04:08:37;;;;;;;7.70;4.03;;;21.40;93.70;;;;;;7397029;19;19915;-73
2023/06/15 04:11:05;;;;;;;8.20;3.75;;;21.40;93.30;;;;;;7396232;19;19922;-73
2023/06/15 04:13:31;;;;;;;8.15;3.78;;;21.40;93.30;;;;;;7396406;19;19918;-73
2023/06/15 04:15:56;;;;;;;12.43;4.40;;;21.30;93.10;;;;;;7399132;19;19939;-74
2023/06/15 04:18:23;;;;;;;9.35;3.55;;;21.40;93.00;;;;;;7398692;19;19931;-72
2023/06/15 04:20:49;;;;;;;7.55;3.95;;;21.40;92.80;;;;;;7400373;19;19930;-73
2023/06/15 04:23:15;;;;;;;7.05;3.72;;;21.40;92.50;;;;;;7395632;19;19915;-73
2023/06/15 04:25:41;;;;;;;9.07;3.88;;;21.50;92.30;;;;;;7396994;19;19948;-72
2023/06/15 04:28:12;;;;;;;8.13;4.05;;;21.40;92.40;;;;;;7398451;19;19910;-72
2023/06/15 04:30:44;;;;;;;7.13;3.70;;;21.40;92.40;;;;;;7397247;19;19918;-72
2023/06/15 04:33:14;;;;;;;7.55;3.70;;;21.50;92.20;;;;;;7365140;19;20340;-72
2023/06/15 04:35:44;;;;;;;6.82;3.42;;;21.50;92.20;;;;;;7399348;19;19939;-73
2023/06/15 04:38:12;;;;;;;6.53;3.28;;;21.40;92.10;;;;;;7397975;19;19914;-72
2023/06/15 04:40:39;;;;;;;6.60;3.78;;;21.50;92.20;;;;;;7403351;19;19933;-73
2023/06/15 04:43:04;;;;;;;;;;;21.40;92.20;;;;;;7406685;19;19946;-75
2023/06/15 04:45:32;;;;;;;7.93;3.90;;;21.50;92.70;;;;;;7404323;19;19982;-72
2023/06/15 04:47:58;;;;;;;7.93;4.10;;;21.50;93.00;;;;;;7403676;19;19929;-72
2023/06/15 04:50:24;;;;;;;8.65;3.88;;;21.60;92.40;;;;;;7400771;19;19930;-72
2023/06/15 04:52:50;;;;;;;7.80;3.60;;;21.70;91.10;;;;;;7401266;19;19922;-72
2023/06/15 04:55:16;;;;;;;7.78;4.22;;;21.80;90.40;;;;;;7401114;19;19943;-72
2023/06/15 04:57:42;;;;;;;6.80;4.13;;;21.80;89.50;;;;;;7402462;19;19926;-72
2023/06/15 05:00:10;;;;;;;7.38;3.78;;;21.90;88.40;;;;;;7404595;19;19943;-73
2023/06/15 05:02:36;;;;;;;7.88;3.78;;;22.00;87.60;;;;;;7404408;19;19925;-71
2023/06/15 05:05:02;;;;;;;9.60;4.55;;;22.10;86.60;;;;;;7406017;19;19918;-73
2023/06/15 05:07:28;;;;;;;9.50;4.45;;;22.20;85.50;;;;;;7403392;19;20302;-72
2023/06/15 05:09:54;;;;;;;6.18;3.70;;;22.20;84.50;;;;;;7404900;19;19960;-73
2023/06/15 05:12:20;;;;;;;7.78;4.40;;;22.30;84.00;;;;;;7402118;19;20241;-73
2023/06/15 05:14:46;;;;;;;7.07;4.05;;;22.40;83.30;;;;;;7370902;19;19922;-73
2023/06/15 05:17:12;;;;;;;7.28;4.30;;;22.50;82.90;;;;;;7401868;19;20335;-72
2023/06/15 05:19:38;;;;;;;8.38;4.45;;;22.60;82.30;;;;;;7402991;19;19939;-72
2023/06/15 05:22:05;;;;;;;7.00;3.95;;;22.60;81.50;;;;;;7399358;19;19922;-72
2023/06/15 05:24:32;;;;;;;6.68;4.55;;;22.70;81.20;;;;;;7404601;19;20003;-72
2023/06/15 05:26:57;;;;;;;7.88;3.63;;;22.80;80.60;;;;;;7404543;19;19919;-74
2023/06/15 05:29:23;;;;;;;6.78;4.10;;;22.90;80.20;;;;;;7371757;19;19934;-74
2023/06/15 05:31:49;;;;;;;6.45;4.13;;;23.10;79.70;;;;;;7401814;19;19922;-72
2023/06/15 05:34:15;;;;;;;9.63;4.15;;;23.20;78.90;;;;;;7401341;19;19922;-72
2023/06/15 05:36:41;;;;;;;6.65;3.90;;;23.20;78.30;;;;;;7402057;19;20458;-73
2023/06/15 05:39:07;;;;;;;9.88;4.50;;;23.30;78.00;;;;;;7400931;19;19910;-73
2023/06/15 05:41:33;;;;;;;13.57;3.88;;;23.30;77.60;;;;;;7403452;19;19978;-73
2023/06/15 05:44:02;;;;;;;7.72;3.95;;;23.40;77.00;;;;;;7405442;19;19923;-72
2023/06/15 05:46:27;;;;;;;12.05;5.07;;;23.40;76.60;;;;;;7402735;19;19925;-73
2023/06/15 05:48:53;;;;;;;6.25;3.83;;;23.40;76.20;;;;;;7405419;19;20029;-73
2023/06/15 05:51:19;;;;;;;8.95;4.18;;;23.50;75.90;;;;;;7400904;19;19943;-72
2023/06/15 05:53:45;;;;;;;8.07;3.50;;;23.50;75.90;;;;;;7404577;19;19926;-72
2023/06/15 05:56:11;;;;;;;9.23;3.70;;;23.50;75.20;;;;;;7402173;19;20269;-72
2023/06/15 05:58:37;;;;;;;6.03;3.47;;;23.50;75.00;;;;;;7404330;19;20644;-73
2023/06/15 06:01:03;;;;;;;8.90;3.95;;;23.50;74.70;;;;;;7397943;19;20232;-72
2023/06/15 06:03:29;;;;;;;7.72;4.00;;;23.50;74.10;;;;;;7402354;19;19921;-72
2023/06/15 06:05:55;;;;;;;8.35;3.85;;;23.50;74.00;;;;;;7400506;19;19918;-72
2023/06/15 06:08:23;;;;;;;6.75;3.70;;;23.50;73.50;;;;;;7401837;19;19957;-71
2023/06/15 06:10:49;;;;;;;7.65;3.53;;;23.60;73.20;;;;;;7402717;19;19914;-72
2023/06/15 06:13:20;;;;;;;7.55;3.40;;;23.70;72.80;;;;;;7401269;19;19915;-73
2023/06/15 06:15:45;;;;;;;8.38;3.90;;;23.70;72.40;;;;;;7400279;19;19978;-73
2023/06/15 06:18:11;;;;;;;6.82;3.58;;;23.80;72.20;;;;;;7401910;19;19918;-73
2023/06/15 06:20:37;;;;;;;7.43;3.60;;;23.90;72.00;;;;;;7400819;19;19978;-72
2023/06/15 06:23:04;;;;;;;5.88;3.60;;;24.00;71.60;;;;;;7401122;19;19926;-73
2023/06/15 06:25:29;;;;;;;7.28;3.75;;;24.10;71.20;;;;;;7397657;19;19914;-74
2023/06/15 06:27:55;;;;;;;7.13;4.20;;;24.30;70.80;;;;;;7380382;19;19926;-74
2023/06/15 06:30:21;;;;;;;8.10;3.95;;;24.30;70.20;;;;;;7398062;19;19918;-73
2023/06/15 06:32:47;;;;;;;7.13;4.25;;;24.40;69.30;;;;;;7403862;19;20350;-73
2023/06/15 06:35:12;;;;;;;6.90;4.05;;;24.60;68.80;;;;;;7400253;19;19926;-73
2023/06/15 06:37:38;;;;;;;8.00;3.70;;;24.60;67.90;;;;;;7403232;19;19918;-72
2023/06/15 06:40:05;;;;;;;8.35;4.38;;;24.60;67.90;;;;;;7401371;19;19923;-72
2023/06/15 06:42:30;;;;;;;7.15;3.90;;;24.60;68.10;;;;;;7401009;19;20236;-73
2023/06/15 06:44:56;;;;;;;5.93;3.65;;;24.70;68.00;;;;;;7402875;19;19922;-73
2023/06/15 06:47:22;;;;;;;6.28;3.78;;;24.70;68.10;;;;;;7401531;19;19974;-72
2023/06/15 06:49:48;;;;;;;6.55;3.78;;;24.90;67.40;;;;;;7402533;19;19978;-73
2023/06/15 06:52:14;;;;;;;7.00;3.65;;;24.80;66.80;;;;;;7371931;19;19915;-73
2023/06/15 06:54:39;;;;;;;9.25;4.00;;;24.90;66.80;;;;;;7402826;19;19915;-73
2023/06/15 06:57:05;;;;;;;7.82;3.42;;;24.80;66.60;;;;;;7401638;19;19918;-73
2023/06/15 06:59:31;;;;;;;6.30;3.72;;;24.70;66.60;;;;;;7382836;19;19929;-73
2023/06/15 07:01:57;;;;;;;6.30;3.60;;;24.70;66.70;;;;;;7382005;19;19918;-73
2023/06/15 07:04:23;;;;;;;6.40;3.28;;;24.70;66.40;;;;;;7398685;19;19941;-74
2023/06/15 07:06:48;;;;;;;6.57;3.40;;;24.70;66.40;;;;;;7402510;19;19933;-72
2023/06/15 07:09:14;;;;;;;7.88;3.85;;;24.80;66.10;;;;;;7398819;19;20282;-73
2023/06/15 07:11:40;;;;;;;6.55;3.20;;;24.90;65.50;;;;;;7369307;19;19935;-73
2023/06/15 07:14:07;;;;;;;5.97;3.67;;;25.10;65.30;;;;;;7400958;19;20002;-73
2023/06/15 07:16:32;;;;;;;6.47;3.70;;;25.30;64.50;;;;;;7403211;19;19939;-73
2023/06/15 07:18:59;;;;;;;6.72;3.67;;;25.30;63.90;;;;;;7406407;19;19939;-72
2023/06/15 07:21:24;;;;;;;7.55;3.08;;;25.60;63.60;;;;;;7397316;19;19936;-73
2023/06/15 07:23:50;;;;;;;6.05;3.67;;;25.80;62.60;;;;;;7398271;19;19919;-73
2023/06/15 07:26:16;;;;;;;8.75;3.53;;;25.90;62.00;;;;;;7398400;19;20308;-72
2023/06/15 07:28:42;;;;;;;7.13;3.83;;;26.00;61.50;;;;;;7399154;19;19915;-73
2023/06/15 07:31:08;;;;;;;5.50;3.40;;;26.10;61.20;;;;;;7398720;19;19914;-73
2023/06/15 07:33:33;;;;;;;7.57;4.78;;;26.40;60.80;;;;;;7400070;19;19926;-74
2023/06/15 07:35:59;;;;;;;5.82;4.53;;;26.40;60.20;;;;;;7400736;19;20339;-73
2023/06/15 07:38:25;;;;;;;7.43;3.63;;;26.60;60.10;;;;;;7399276;19;19935;-73
2023/06/15 07:40:51;;;;;;;6.82;4.15;;;26.60;59.60;;;;;;7399536;19;20257;-71
2023/06/15 07:43:17;;;;;;;8.60;5.05;;;26.70;59.40;;;;;;7393681;19;20320;-71
2023/06/15 07:45:45;;;;;;;7.05;4.97;;;26.80;59.30;;;;;;7395353;19;19914;-71
2023/06/15 07:48:11;;;;;;;7.47;3.63;;;27.00;58.90;;;;;;7396170;19;19982;-73
2023/06/15 07:50:37;;;;;;;5.95;4.65;;;27.20;58.50;;;;;;7400776;19;19926;-72
2023/06/15 07:53:03;;;;;;;5.78;4.10;;;27.30;58.50;;;;;;7395637;19;19946;-73
2023/06/15 07:55:29;;;;;;;6.22;4.18;;;27.40;58.00;;;;;;7398374;19;19918;-71
2023/06/15 07:57:55;;;;;;;8.10;4.97;;;27.40;58.00;;;;;;7400015;19;19914;-72
2023/06/15 08:00:21;;;;;;;6.18;4.43;;;27.50;57.50;;;;;;7375183;19;20505;-72
2023/06/15 08:02:48;;;;;;;;;;;27.60;57.20;;;;;;7392942;19;20492;-72
2023/06/15 08:05:15;;;;;;;8.38;4.53;;;27.50;56.80;;;;;;7366682;19;20553;-72
2023/06/15 08:07:41;;;;;;;7.35;4.20;;;27.30;57.30;;;;;;7398257;19;20019;-73
2023/06/15 08:10:07;;;;;;;6.85;3.53;;;27.40;57.30;;;;;;7397891;19;20255;-72
2023/06/15 08:12:33;;;;;;;7.32;4.72;;;27.50;57.20;;;;;;7375691;19;20702;-72
2023/06/15 08:14:59;;;;;;;7.72;5.10;;;27.50;57.10;;;;;;7401346;19;19917;-72
2023/06/15 08:17:25;;;;;;;8.85;4.68;;;27.50;56.90;;;;;;7401679;19;19918;-72
2023/06/15 08:19:52;;;;;;;6.88;4.07;;;27.40;57.10;;;;;;7400708;19;19977;-71
2023/06/15 08:22:17;;;;;;;;;;;27.50;57.20;;;;;;7383698;19;19934;-72
2023/06/15 08:24:44;;;;;;;7.38;5.15;;;27.60;57.10;;;;;;7405905;19;19922;-72
2023/06/15 08:27:11;;;;;;;6.63;4.95;;;27.70;56.80;;;;;;7406762;19;20335;-72
2023/06/15 08:29:37;;;;;;;6.28;4.00;;;27.60;56.60;;;;;;7405226;19;20285;-72
2023/06/15 08:32:06;;;;;;;8.35;4.78;;;27.60;56.50;;;;;;7396839;19;20018;-73
2023/06/15 08:34:32;;;;;;;6.80;4.78;;;27.60;56.70;;;;;;7406569;19;19910;-72
2023/06/15 08:36:58;;;;;;;8.23;4.65;;;27.70;56.40;;;;;;7402618;19;19943;-72
2023/06/15 08:39:24;;;;;;;8.25;5.93;;;27.80;56.30;;;;;;7402597;19;20339;-72
2023/06/15 08:41:53;;;;;;;14.32;6.20;;;27.60;58.80;;;;;;7405244;19;19933;-72
2023/06/15 08:44:20;;;;;;;10.63;6.03;;;27.40;60.10;;;;;;7402549;19;19918;-71
2023/06/15 08:46:47;;;;;;;10.18;5.70;;;27.50;60.10;;;;;;7404837;19;19919;-73
2023/06/15 08:49:13;;;;;;;14.45;5.32;;;27.70;60.40;;;;;;7402312;19;20232;-73
2023/06/15 08:51:39;;;;;;;9.05;5.25;;;27.40;61.50;;;;;;7405773;19;19945;-72
2023/06/15 08:54:08;;;;;;;9.75;6.15;;;27.40;62.40;;;;;;7397193;19;19915;-72
2023/06/15 08:56:37;;;;;;;10.82;7.13;;;27.30;62.80;;;;;;7404910;19;19914;-72
2023/06/15 08:59:04;;;;;;;9.20;5.70;;;27.20;63.30;;;;;;7402877;19;20958;-72
2023/06/15 09:01:32;;;;;;;;;;;27.30;63.40;;;;;;7408103;19;19929;-72
2023/06/15 09:03:58;;;;;;;11.75;7.18;;;27.50;63.40;;;;;;7404386;19;19919;-72
2023/06/15 09:06:24;;;;;;;12.18;6.03;;;27.50;63.60;;;;;;7395401;19;19923;-72
2023/06/15 09:08:51;;;;;;;12.48;7.85;;;27.80;63.70;;;;;;7404379;19;19923;-72
2023/06/15 09:11:18;;;;;;;10.93;7.53;;;27.90;62.90;;;;;;7401795;19;19911;-73
2023/06/15 09:13:45;;;;;;;11.95;6.47;;;27.90;62.50;;;;;;7407635;19;19937;-72
2023/06/15 09:16:11;;;;;;;10.45;5.82;;;27.70;63.60;;;;;;7402829;19;19986;-72
2023/06/15 09:18:47;;;;;;;;;;;27.60;63.80;;;;;;7406019;19;19918;-73
2023/06/15 09:21:15;;;;;;;11.35;6.50;;;27.70;63.20;;;;;;7402299;19;19918;-71
2023/06/15 09:23:45;;;;;;;12.98;6.50;;;27.90;62.80;;;;;;7405789;19;19935;-72
2023/06/15 09:26:27;;;;;;;9.95;5.45;;;28.00;62.50;;;;;;7400507;19;20244;-72
2023/06/15 09:28:57;;;;;;;9.40;6.15;;;28.10;61.80;;;;;;7403783;19;19932;-73
2023/06/15 09:31:36;;;;;;;10.45;6.13;;;28.30;61.50;;;;;;7404092;19;19949;-72
2023/06/15 09:34:12;;;;;;;12.40;5.82;;;28.40;61.50;;;;;;7404191;19;19911;-73
2023/06/15 09:36:48;;;;;;;10.45;6.60;;;28.40;60.90;;;;;;7399534;19;19926;-72
2023/06/15 09:39:15;;;;;;;9.57;6.35;;;28.30;60.70;;;;;;7405806;19;19914;-73
2023/06/15 09:41:52;;;;;;;11.90;6.80;;;28.30;60.20;;;;;;7403026;19;20793;-72
2023/06/15 09:44:22;;;;;;;9.85;6.75;;;28.00;60.60;;;;;;7401340;19;19947;-72
2023/06/15 09:46:50;;;;;;;9.88;7.32;;;28.00;60.00;;;;;;7405569;19;19930;-72
2023/06/15 09:49:26;;;;;;;12.27;6.25;;;27.90;58.70;;;;;;7401980;19;19914;-72
2023/06/15 09:51:54;;;;;;;12.98;6.57;;;28.30;58.90;;;;;;7405464;19;19925;-73
2023/06/15 09:54:21;;;;;;;9.60;6.50;;;28.50;58.60;;;;;;7377768;19;19923;-72
2023/06/15 09:56:50;;;;;;;10.35;6.07;;;28.50;58.80;;;;;;7402740;19;20740;-72
2023/06/15 09:59:16;;;;;;;10.13;5.88;;;28.60;56.90;;;;;;7399807;19;19922;-72
2023/06/15 10:01:46;;;;;;;9.75;5.53;;;28.50;58.40;;;;;;7403667;19;19918;-72
2023/06/15 10:04:13;;;;;;;8.85;6.45;;;28.80;56.80;;;;;;7371841;19;19923;-72
2023/06/15 10:06:43;;;;;;;10.52;5.75;;;28.30;57.90;;;;;;7375253;19;19918;-72
2023/06/15 10:09:12;;;;;;;10.52;7.22;;;28.50;58.20;;;;;;7369878;19;20350;-72
2023/06/15 10:11:41;;;;;;;9.55;5.75;;;28.70;57.00;;;;;;7354578;19;19918;-73
2023/06/15 10:14:20;;;;;;;10.45;5.13;;;29.00;53.30;;;;;;7356247;19;19922;-72
2023/06/15 10:16:57;;;;;;;11.38;4.32;;;28.80;52.90;;;;;;7341022;19;20310;-72
2023/06/15 10:19:25;;;;;;;6.53;4.95;;;28.50;54.00;;;;;;7374585;19;19914;-72
2023/06/15 10:21:53;;;;;;;10.98;5.53;;;28.40;54.60;;;;;;7355644;19;19940;-73
2023/06/15 10:24:22;;;;;;;7.38;5.22;;;28.90;53.70;;;;;;7378523;19;19910;-72
2023/06/15 10:26:48;;;;;;;8.30;3.75;;;29.20;53.30;;;;;;7339254;19;22283;-72
2023/06/15 10:29:47;;;;;;;8.15;4.40;;;29.50;53.30;;;;;;7346591;19;19929;-72
2023/06/15 10:32:26;;;;;;;11.10;5.55;;;29.70;53.10;;;;;;7333041;19;19946;-72
2023/06/15 10:35:22;;;;;;;9.60;5.13;;;29.80;53.30;;;;;;7340199;19;19978;-72
2023/06/15 10:37:53;;;;;;;10.48;5.25;;;29.80;53.20;;;;;;7354057;19;19925;-72
2023/06/15 10:40:34;;;;;;;7.10;4.95;;;29.60;53.20;;;;;;7321604;19;24630;-72
2023/06/15 10:43:04;;;;;;;9.88;4.95;;;29.40;53.80;;;;;;7342585;19;19918;-72
2023/06/15 10:45:34;;;;;;;10.13;5.68;;;29.20;54.60;;;;;;7337051;19;19910;-71
2023/06/15 10:48:02;;;;;;;8.30;5.22;;;29.00;54.40;;;;;;7349532;19;19928;-73
2023/06/15 10:50:51;;;;;;;6.68;5.07;;;28.80;54.10;;;;;;7358244;19;19926;-72
2023/06/15 10:53:25;;;;;;;9.05;5.75;;;28.80;54.10;;;;;;7333137;19;20501;-71
2023/06/15 10:55:55;;;;;;;8.82;5.22;;;28.50;55.70;;;;;;7333885;19;19939;-72
2023/06/15 10:58:22;;;;;;;10.18;5.05;;;28.40;53.80;;;;;;7341079;19;19919;-71
2023/06/15 11:01:13;;;;;;;9.30;4.57;;;28.60;53.70;;;;;;7337950;19;20494;-71
2023/06/15 11:03:43;;;;;;;8.27;5.32;;;28.60;54.90;;;;;;7345069;19;19922;-72
2023/06/15 11:06:19;;;;;;;9.65;6.28;;;28.30;54.80;;;;;;7352177;19;19919;-72
2023/06/15 11:08:51;;;;;;;8.05;4.85;;;28.30;54.10;;;;;;7363761;19;19933;-72
2023/06/15 11:11:41;;;;;;;10.15;5.93;;;28.40;54.00;;;;;;7329030;19;19922;-72
2023/06/15 11:14:23;;;;;;;7.43;4.53;;;28.40;54.70;;;;;;7350929;19;20535;-72
2023/06/15 11:17:05;;;;;;;11.02;4.60;;;28.60;53.40;;;;;;7338367;19;19911;-71
2023/06/15 11:19:32;;;;;;;9.32;4.88;;;29.10;52.80;;;;;;7344773;19;19918;-72
2023/06/15 11:22:05;;;;;;;10.40;4.60;;;29.10;52.90;;;;;;7351440;19;19943;-71
2023/06/15 11:24:37;;;;;;;8.23;5.57;;;29.50;53.30;;;;;;7365215;19;19939;-71
2023/06/15 11:27:09;;;;;;;8.30;6.35;;;29.20;53.70;;;;;;7324329;19;21522;-72
2023/06/15 11:29:41;;;;;;;9.48;4.85;;;29.10;53.20;;;;;;7339116;19;23242;-72
2023/06/15 11:32:09;;;;;;;9.90;4.68;;;29.30;53.20;;;;;;7349672;19;20268;-71
2023/06/15 11:34:36;;;;;;;8.63;5.50;;;29.10;54.00;;;;;;7321340;19;19915;-73
2023/06/15 11:37:03;;;;;;;10.13;5.47;;;28.50;55.20;;;;;;7336664;19;19918;-71
2023/06/15 11:39:30;;;;;;;8.15;5.13;;;28.50;55.30;;;;;;7342563;19;19918;-72
2023/06/15 11:41:57;;;;;;;8.40;4.32;;;28.10;54.00;;;;;;7351879;19;20235;-74
2023/06/15 11:44:26;;;;;;;8.27;5.32;;;28.80;52.10;;;;;;7342915;19;19926;-73
2023/06/15 11:47:01;;;;;;;8.48;5.97;;;28.90;52.70;;;;;;7365268;19;19931;-72
2023/06/15 11:49:35;;;;;;;8.40;5.30;;;28.80;52.20;;;;;;7352577;19;19919;-72
2023/06/15 11:52:02;;;;;;;13.15;5.45;;;29.10;52.50;;;;;;7352991;19;19910;-73
2023/06/15 11:54:28;;;;;;;11.60;5.78;;;29.20;53.50;;;;;;7385190;19;19921;-72
2023/06/15 11:56:58;;;;;;;;;;;29.50;53.50;;;;;;7401053;19;19967;-73
2023/06/15 11:59:27;;;;;;;8.32;5.22;;;29.70;52.00;;;;;;7397319;19;19981;-72
2023/06/15 12:01:57;;;;;;;11.60;5.47;;;29.40;52.40;;;;;;7399223;19;19911;-72
2023/06/15 12:04:29;;;;;;;7.53;5.47;;;29.20;52.40;;;;;;7375993;19;20453;-72
2023/06/15 12:06:55;;;;;;;8.95;5.40;;;28.80;49.10;;;;;;7400091;19;20554;-71
2023/06/15 12:09:21;;;;;;;8.35;4.55;;;29.60;47.70;;;;;;7398072;19;19914;-71
2023/06/15 12:11:47;;;;;;;7.25;5.45;;;29.70;48.00;;;;;;7402077;19;19926;-72
2023/06/15 12:14:20;;;;;;;7.90;5.25;;;29.30;47.30;;;;;;7400418;19;20331;-72
2023/06/15 12:16:52;;;;;;;12.02;4.70;;;29.30;44.00;;;;;;7400460;19;20280;-71
2023/06/15 12:19:19;;;;;;;;;;;29.60;45.40;;;;;;7399740;19;20362;-73
2023/06/15 12:21:46;;;;;;;7.15;3.95;;;29.50;46.40;;;;;;7401624;19;20295;-72
2023/06/15 12:24:17;;;;;;;8.65;5.00;;;29.80;46.90;;;;;;7400287;19;20718;-72
2023/06/15 12:26:52;;;;;;;9.00;5.05;;;29.90;47.60;;;;;;7398636;19;19946;-72
2023/06/15 12:29:20;;;;;;;8.50;5.40;;;29.50;49.00;;;;;;7394167;19;19914;-71
2023/06/15 12:31:52;;;;;;;7.35;5.03;;;29.90;45.00;;;;;;7396603;19;20008;-72
2023/06/15 12:34:26;;;;;;;9.48;5.32;;;30.70;47.20;;;;;;7395753;19;19914;-71
2023/06/15 12:36:53;;;;;;;8.18;5.25;;;30.00;44.10;;;;;;7398859;19;19929;-72
2023/06/15 12:39:19;;;;;;;7.45;5.70;;;29.90;45.20;;;;;;7400277;19;20335;-74
2023/06/15 12:41:45;;;;;;;7.38;4.65;;;28.70;46.90;;;;;;7398812;19;19939;-70
2023/06/15 12:44:11;;;;;;;8.73;4.68;;;29.00;47.60;;;;;;7396787;19;19918;-72
2023/06/15 12:46:39;;;;;;;6.40;4.88;;;29.60;46.80;;;;;;7400347;19;19918;-72
2023/06/15 12:49:07;;;;;;;8.18;4.85;;;30.10;47.00;;;;;;7395288;19;19930;-71
2023/06/15 12:51:33;;;;;;;7.57;4.82;;;30.00;46.80;;;;;;7399527;19;19950;-72